Time;durP1;ratioP1;P1;durP2;ratioP2;P2;SDS_P1;SDS_P2;PMS_P1;PMS_P2;Temp;Humidity;BMP_temperature;BMP_pressure;BME280_temperature;BME280_humidity;BME280_pressure;Samples;Min_cycle;Max_cycle;Signal;HPM_P1;HPM_P2
2023/05/26 00:00:06;;;;;;;10.10;2.45;;;;;;;;;;5055465;28;20028;-77
2023/05/26 00:02:32;;;;;;;13.57;2.65;;;;;;;;;;5036307;28;20028;-79
2023/05/26 00:04:59;;;;;;;16.25;3.17;;;;;;;;;;5053511;28;20057;-79
2023/05/26 00:07:25;;;;;;;10.15;2.80;;;;;;;;;;5051584;28;20025;-77
2023/05/26 00:09:50;;;;;;;13.00;2.75;;;;;;;;;;5051260;28;20087;-77
2023/05/26 00:12:17;;;;;;;11.13;2.38;;;;;;;;;;5039526;28;20534;-76
2023/05/26 00:14:42;;;;;;;16.25;2.97;;;;;;;;;;5032328;28;20013;-76
2023/05/26 00:17:08;;;;;;;12.75;2.72;;;;;;;;;;5053506;28;20131;-76
2023/05/26 00:19:35;;;;;;;11.55;2.85;;;;;;;;;;5052115;28;20099;-76
2023/05/26 00:22:01;;;;;;;12.20;2.63;;;;;;;;;;5039716;28;20036;-76
2023/05/26 00:24:27;;;;;;;10.18;2.83;;;;;;;;;;5055076;28;20440;-76
2023/05/26 00:26:53;;;;;;;13.70;3.30;;;;;;;;;;5041885;28;20024;-76
2023/05/26 00:29:19;;;;;;;10.95;2.40;;;;;;;;;;5056785;28;20025;-76
2023/05/26 00:31:44;;;;;;;13.25;2.88;;;;;;;;;;5043481;28;20040;-76
2023/05/26 00:34:09;;;;;;;13.57;2.90;;;;;;;;;;5055891;28;20029;-75
2023/05/26 00:36:35;;;;;;;10.55;2.25;;;;;;;;;;5055841;28;20040;-76
2023/05/26 00:39:00;;;;;;;11.38;2.42;;;;;;;;;;5041498;28;20021;-76
2023/05/26 00:41:26;;;;;;;11.82;3.00;;;;;;;;;;5036340;28;20036;-76
2023/05/26 00:43:52;;;;;;;12.52;3.05;;;;;;;;;;5051888;28;20063;-76
2023/05/26 00:46:17;;;;;;;10.88;3.22;;;;;;;;;;5029200;28;21309;-77
2023/05/26 00:48:43;;;;;;;13.07;2.78;;;;;;;;;;5031610;28;20033;-76
2023/05/26 00:51:11;;;;;;;14.55;2.92;;;;;;;;;;5052221;28;20029;-77
2023/05/26 00:53:41;;;;;;;11.75;2.80;;;;;;;;;;5060009;28;20020;-77
2023/05/26 00:56:09;;;;;;;11.68;3.20;;;;;;;;;;5058058;28;20529;-76
2023/05/26 00:58:34;;;;;;;8.82;2.45;;;;;;;;;;5052087;28;20749;-77
2023/05/26 01:01:00;;;;;;;9.90;2.22;;;;;;;;;;5034531;28;20126;-76
2023/05/26 01:03:27;;;;;;;13.95;2.80;;;;;;;;;;5034450;28;20078;-78
2023/05/26 01:05:53;;;;;;;14.23;2.60;;;;;;;;;;5049606;28;20061;-77
2023/05/26 01:08:18;;;;;;;14.38;2.75;;;;;;;;;;5053192;28;20037;-75
2023/05/26 01:10:44;;;;;;;10.15;2.30;;;;;;;;;;5029912;28;20082;-76
2023/05/26 01:13:15;;;;;;;13.23;2.70;;;;;;;;;;5054031;28;20478;-76
2023/05/26 01:15:53;;;;;;;10.90;2.80;;;;;;;;;;5036255;28;20028;-76
2023/05/26 01:18:47;;;;;;;12.57;2.90;;;;;;;;;;5027392;28;20098;-77
2023/05/26 01:21:12;;;;;;;11.93;2.22;;;;;;;;;;5043306;28;20036;-77
2023/05/26 01:23:47;;;;;;;12.25;2.92;;;;;;;;;;5047753;28;20032;-77
2023/05/26 01:26:21;;;;;;;8.95;2.10;;;;;;;;;;5048724;28;20075;-78
2023/05/26 01:28:51;;;;;;;12.75;2.55;;;;;;;;;;5050585;28;20115;-75
2023/05/26 01:31:17;;;;;;;13.57;3.15;;;;;;;;;;5033608;28;20049;-76
2023/05/26 01:33:42;;;;;;;12.13;2.53;;;;;;;;;;5052134;28;20052;-76
2023/05/26 01:36:07;;;;;;;12.57;2.60;;;;;;;;;;5045237;28;20415;-76
2023/05/26 01:38:33;;;;;;;10.73;2.80;;;;;;;;;;5031934;28;20087;-77
2023/05/26 01:41:17;;;;;;;9.95;2.58;;;;;;;;;;5047090;28;20039;-76
2023/05/26 01:44:02;;;;;;;11.35;2.88;;;;;;;;;;5045685;28;20033;-76
2023/05/26 01:46:50;;;;;;;10.32;2.30;;;;;;;;;;5024614;28;21889;-79
2023/05/26 01:49:19;;;;;;;14.27;2.70;;;;;;;;;;5048639;28;20032;-76
2023/05/26 01:51:51;;;;;;;9.80;2.15;;;;;;;;;;5048028;28;20021;-76
2023/05/26 01:54:20;;;;;;;9.68;2.08;;;;;;;;;;5035779;28;20082;-76
2023/05/26 01:56:46;;;;;;;13.32;2.38;;;;;;;;;;5047847;28;20628;-76
2023/05/26 01:59:13;;;;;;;10.13;2.30;;;;;;;;;;5036037;28;20488;-76
2023/05/26 02:01:39;;;;;;;12.35;2.45;;;;;;;;;;5044049;28;20445;-77
2023/05/26 02:04:04;;;;;;;8.93;2.35;;;;;;;;;;5023132;28;20028;-76
2023/05/26 02:06:29;;;;;;;15.27;2.75;;;;;;;;;;5050171;28;20037;-78
2023/05/26 02:08:55;;;;;;;14.38;2.70;;;;;;;;;;5046437;28;20044;-76
2023/05/26 02:11:21;;;;;;;11.50;2.53;;;;;;;;;;5041310;28;20033;-76
2023/05/26 02:13:46;;;;;;;14.68;2.70;;;;;;;;;;5049368;28;20082;-76
2023/05/26 02:16:13;;;;;;;12.50;2.45;;;;;;;;;;5030176;28;20017;-76
2023/05/26 02:18:39;;;;;;;13.98;2.85;;;;;;;;;;5045295;28;20025;-76
2023/05/26 02:21:04;;;;;;;14.45;2.85;;;;;;;;;;5029736;28;20393;-76
2023/05/26 02:23:29;;;;;;;13.30;2.50;;;;;;;;;;5046573;28;20021;-77
2023/05/26 02:25:55;;;;;;;11.73;2.45;;;;;;;;;;5029484;28;20065;-76
2023/05/26 02:28:20;;;;;;;13.57;2.50;;;;;;;;;;5030900;28;20029;-76
2023/05/26 02:30:45;;;;;;;12.63;2.65;;;;;;;;;;5048609;28;20037;-77
2023/05/26 02:33:11;;;;;;;13.23;2.30;;;;;;;;;;5040178;28;20033;-76
2023/05/26 02:35:36;;;;;;;10.02;2.40;;;;;;;;;;5048677;28;20021;-76
2023/05/26 02:38:02;;;;;;;11.10;2.28;;;;;;;;;;5037208;28;20125;-78
2023/05/26 02:40:27;;;;;;;9.00;2.40;;;;;;;;;;5055776;28;20032;-77
2023/05/26 02:42:52;;;;;;;12.13;2.90;;;;;;;;;;5054820;28;20026;-76
2023/05/26 02:45:18;;;;;;;13.32;2.42;;;;;;;;;;5037950;28;20021;-78
2023/05/26 02:47:43;;;;;;;8.45;2.20;;;;;;;;;;5045735;28;20029;-76
2023/05/26 02:50:09;;;;;;;10.82;2.42;;;;;;;;;;5029217;28;20073;-76
2023/05/26 02:52:34;;;;;;;10.20;2.30;;;;;;;;;;5038299;28;20053;-76
2023/05/26 02:55:00;;;;;;;11.10;2.13;;;;;;;;;;5040155;28;20022;-76
2023/05/26 02:57:25;;;;;;;12.13;2.45;;;;;;;;;;5065411;28;20440;-76
2023/05/26 02:59:50;;;;;;;11.55;2.40;;;;;;;;;;5054615;28;20444;-77
2023/05/26 03:02:16;;;;;;;11.55;2.30;;;;;;;;;;5053639;28;20068;-76
2023/05/26 03:04:41;;;;;;;11.52;2.17;;;;;;;;;;5040305;28;20021;-77
2023/05/26 03:07:10;;;;;;;9.18;2.45;;;;;;;;;;5052612;28;20046;-76
2023/05/26 03:09:35;;;;;;;13.23;2.88;;;;;;;;;;5050828;28;20083;-76
2023/05/26 03:12:00;;;;;;;11.60;2.78;;;;;;;;;;5056718;28;20100;-77
2023/05/26 03:14:27;;;;;;;10.68;2.70;;;;;;;;;;5034959;28;20021;-75
2023/05/26 03:16:52;;;;;;;14.02;3.15;;;;;;;;;;5034926;28;20074;-76
2023/05/26 03:19:18;;;;;;;11.50;2.55;;;;;;;;;;5038605;28;20044;-76
2023/05/26 03:21:45;;;;;;;10.15;2.85;;;;;;;;;;5032928;28;20105;-76
2023/05/26 03:24:10;;;;;;;11.77;2.70;;;;;;;;;;5053546;28;20035;-77
2023/05/26 03:26:36;;;;;;;10.07;2.28;;;;;;;;;;5040074;28;20021;-76
2023/05/26 03:29:01;;;;;;;9.23;2.33;;;;;;;;;;5056333;28;20036;-76
2023/05/26 03:31:27;;;;;;;11.57;2.35;;;;;;;;;;5033077;28;20029;-77
2023/05/26 03:33:52;;;;;;;11.30;2.40;;;;;;;;;;5036179;28;20112;-76
2023/05/26 03:36:18;;;;;;;14.32;2.65;;;;;;;;;;5035171;28;20047;-76
2023/05/26 03:38:43;;;;;;;10.93;2.58;;;;;;;;;;5038075;28;21389;-76
2023/05/26 03:41:09;;;;;;;13.05;2.63;;;;;;;;;;5053765;28;20025;-76
2023/05/26 03:43:34;;;;;;;11.75;2.47;;;;;;;;;;5047345;28;20060;-78
2023/05/26 03:46:00;;;;;;;17.02;3.10;;;;;;;;;;5039363;28;20032;-76
2023/05/26 03:48:26;;;;;;;12.63;2.70;;;;;;;;;;5052149;28;20047;-76
2023/05/26 03:50:52;;;;;;;10.32;2.20;;;;;;;;;;5034972;28;20156;-78
2023/05/26 03:53:17;;;;;;;11.05;2.28;;;;;;;;;;5054396;28;20029;-77
2023/05/26 03:55:43;;;;;;;9.32;2.40;;;;;;;;;;5036275;28;20013;-75
2023/05/26 03:58:08;;;;;;;15.20;2.70;;;;;;;;;;5038849;28;20104;-76
2023/05/26 04:00:33;;;;;;;10.45;2.53;;;;;;;;;;5051777;28;20040;-76
2023/05/26 04:03:00;;;;;;;11.20;2.42;;;;;;;;;;5050779;28;20068;-75
2023/05/26 04:05:26;;;;;;;11.07;2.88;;;;;;;;;;5040413;28;20029;-76
2023/05/26 04:07:52;;;;;;;11.35;2.42;;;;;;;;;;5036633;28;20116;-78
2023/05/26 04:10:17;;;;;;;10.70;2.67;;;;;;;;;;5034606;28;20037;-77
2023/05/26 04:12:43;;;;;;;8.57;2.33;;;;;;;;;;5051283;28;20073;-76
2023/05/26 04:15:09;;;;;;;12.70;3.05;;;;;;;;;;5036543;28;20028;-77
2023/05/26 04:17:35;;;;;;;12.02;2.60;;;;;;;;;;5030149;28;20029;-76
2023/05/26 04:20:01;;;;;;;17.25;3.17;;;;;;;;;;5049351;28;20034;-76
2023/05/26 04:22:26;;;;;;;15.25;2.83;;;;;;;;;;5050719;28;20103;-77
2023/05/26 04:24:51;;;;;;;11.68;2.47;;;;;;;;;;5027329;28;20469;-75
2023/05/26 04:27:17;;;;;;;11.35;2.38;;;;;;;;;;5041732;28;20037;-76
2023/05/26 04:29:42;;;;;;;10.35;2.40;;;;;;;;;;5048969;28;20071;-77
2023/05/26 04:32:11;;;;;;;11.50;2.67;;;;;;;;;;5025284;28;20394;-75
2023/05/26 04:34:38;;;;;;;12.43;2.92;;;;;;;;;;5049760;28;20017;-77
2023/05/26 04:37:04;;;;;;;13.32;3.45;;;;;;;;;;5047221;28;20065;-76
2023/05/26 04:39:32;;;;;;;13.23;2.63;;;;;;;;;;5051531;28;20501;-77
2023/05/26 04:41:58;;;;;;;9.25;2.97;;;;;;;;;;5046428;28;20032;-75
2023/05/26 04:44:24;;;;;;;11.27;2.83;;;;;;;;;;5039504;28;20037;-76
2023/05/26 04:46:50;;;;;;;10.02;2.65;;;;;;;;;;5025530;28;20508;-77
2023/05/26 04:49:16;;;;;;;11.18;2.88;;;;;;;;;;5028090;28;20064;-76
2023/05/26 04:51:41;;;;;;;14.07;3.38;;;;;;;;;;5033257;28;20028;-76
2023/05/26 04:54:07;;;;;;;12.35;3.13;;;;;;;;;;5034992;28;20374;-76
2023/05/26 04:56:32;;;;;;;9.55;2.90;;;;;;;;;;5036621;28;20385;-76
2023/05/26 04:58:58;;;;;;;14.65;3.67;;;;;;;;;;5032950;28;20028;-76
2023/05/26 05:01:24;;;;;;;13.50;3.80;;;;;;;;;;5028111;28;20268;-76
2023/05/26 05:03:49;;;;;;;11.07;3.70;;;;;;;;;;5010523;28;20029;-76
2023/05/26 05:06:15;;;;;;;13.02;3.45;;;;;;;;;;5028636;28;20029;-76
2023/05/26 05:08:41;;;;;;;11.77;3.50;;;;;;;;;;5025677;28;20034;-77
2023/05/26 05:11:07;;;;;;;14.55;3.80;;;;;;;;;;5016699;28;20111;-77
2023/05/26 05:13:32;;;;;;;13.27;3.67;;;;;;;;;;5012649;28;20101;-76
2023/05/26 05:15:58;;;;;;;15.38;3.70;;;;;;;;;;5014358;28;20022;-79
2023/05/26 05:18:24;;;;;;;13.85;3.47;;;;;;;;;;5034226;28;20033;-76
2023/05/26 05:20:49;;;;;;;14.55;3.80;;;;;;;;;;5027677;28;20025;-79
2023/05/26 05:23:15;;;;;;;13.02;3.53;;;;;;;;;;5020750;28;20029;-78
2023/05/26 05:25:41;;;;;;;16.63;3.50;;;;;;;;;;5009474;28;20017;-81
2023/05/26 05:28:06;;;;;;;10.20;2.92;;;;;;;;;;5033435;28;20042;-78
2023/05/26 05:30:32;;;;;;;15.63;3.08;;;;;;;;;;5020093;28;20032;-78
2023/05/26 05:32:57;;;;;;;12.63;2.92;;;;;;;;;;5035385;28;20075;-78
2023/05/26 05:35:22;;;;;;;11.52;2.70;;;;;;;;;;5018167;28;20029;-78
2023/05/26 05:37:48;;;;;;;11.13;2.67;;;;;;;;;;5020341;28;20030;-76
2023/05/26 05:40:14;;;;;;;10.68;2.53;;;;;;;;;;5029565;28;20033;-77
2023/05/26 05:42:39;;;;;;;12.77;2.67;;;;;;;;;;5034110;28;20022;-75
2023/05/26 05:45:05;;;;;;;9.95;2.30;;;;;;;;;;5016799;28;20034;-76
2023/05/26 05:47:31;;;;;;;13.52;3.25;;;;;;;;;;5019783;28;20106;-76
2023/05/26 05:49:56;;;;;;;11.57;3.17;;;;;;;;;;5047242;28;20036;-78
2023/05/26 05:52:21;;;;;;;14.38;2.75;;;;;;;;;;5048650;28;20033;-79
2023/05/26 05:54:47;;;;;;;11.68;2.38;;;;;;;;;;5035860;28;20107;-78
2023/05/26 05:57:12;;;;;;;15.98;3.45;;;;;;;;;;5051184;28;20044;-76
2023/05/26 05:59:37;;;;;;;20.13;3.15;;;;;;;;;;5042535;28;20027;-76
2023/05/26 06:02:03;;;;;;;15.98;2.65;;;;;;;;;;5033809;28;20128;-77
2023/05/26 06:04:28;;;;;;;11.80;2.65;;;;;;;;;;5037335;28;20024;-76
2023/05/26 06:06:54;;;;;;;10.68;2.53;;;;;;;;;;5050424;28;20120;-76
2023/05/26 06:09:21;;;;;;;14.02;3.13;;;;;;;;;;5044439;28;20033;-75
2023/05/26 06:11:46;;;;;;;11.57;2.35;;;;;;;;;;5052267;28;20171;-77
2023/05/26 06:14:12;;;;;;;14.30;2.72;;;;;;;;;;5056492;28;20048;-75
2023/05/26 06:16:37;;;;;;;9.75;2.60;;;;;;;;;;5055593;28;20017;-76
2023/05/26 06:19:02;;;;;;;15.50;2.40;;;;;;;;;;5036254;28;20033;-77
2023/05/26 06:21:28;;;;;;;13.23;2.65;;;;;;;;;;5042525;28;20020;-76
2023/05/26 06:23:53;;;;;;;16.90;2.80;;;;;;;;;;5038153;28;20061;-77
2023/05/26 06:26:19;;;;;;;13.02;2.90;;;;;;;;;;5060576;28;20047;-76
2023/05/26 06:28:44;;;;;;;14.98;3.00;;;;;;;;;;5033640;28;20557;-77
2023/05/26 06:31:10;;;;;;;12.23;3.38;;;;;;;;;;5059995;28;20064;-75
2023/05/26 06:33:35;;;;;;;13.45;2.88;;;;;;;;;;5059335;28;20479;-76
2023/05/26 06:36:00;;;;;;;12.88;2.83;;;;;;;;;;5061204;28;20047;-76
2023/05/26 06:38:26;;;;;;;11.55;2.42;;;;;;;;;;5058861;28;20111;-76
2023/05/26 06:40:51;;;;;;;15.23;2.97;;;;;;;;;;5057799;28;20113;-77
2023/05/26 06:43:16;;;;;;;11.90;2.45;;;;;;;;;;5045935;28;20075;-76
2023/05/26 06:45:42;;;;;;;16.50;2.80;;;;;;;;;;5041120;28;20036;-77
2023/05/26 06:48:07;;;;;;;14.25;3.03;;;;;;;;;;5036554;28;20059;-76
2023/05/26 06:50:33;;;;;;;10.90;2.40;;;;;;;;;;5055770;28;20079;-77
2023/05/26 06:52:58;;;;;;;19.52;3.88;;;;;;;;;;5056557;28;20362;-77
2023/05/26 06:55:23;;;;;;;12.07;3.00;;;;;;;;;;5056804;28;20105;-79
2023/05/26 06:57:50;;;;;;;15.43;3.05;;;;;;;;;;5036365;28;20138;-79
2023/05/26 07:00:15;;;;;;;10.70;2.80;;;;;;;;;;5055882;28;20052;-79
2023/05/26 07:02:41;;;;;;;13.48;2.67;;;;;;;;;;5055248;28;20378;-79
2023/05/26 07:05:08;;;;;;;14.10;2.33;;;;;;;;;;5057000;28;20087;-79
2023/05/26 07:07:34;;;;;;;14.88;2.50;;;;;;;;;;5051075;28;20037;-79
2023/05/26 07:09:59;;;;;;;13.75;3.20;;;;;;;;;;5051612;28;20025;-79
2023/05/26 07:12:24;;;;;;;14.05;2.92;;;;;;;;;;5052907;28;20044;-79
2023/05/26 07:14:50;;;;;;;15.30;3.00;;;;;;;;;;5034815;28;20091;-79
2023/05/26 07:17:15;;;;;;;10.65;2.70;;;;;;;;;;5036033;28;20059;-79
2023/05/26 07:19:41;;;;;;;11.80;2.42;;;;;;;;;;5049479;28;20086;-79
2023/05/26 07:22:06;;;;;;;11.55;2.42;;;;;;;;;;5045668;28;20039;-79
2023/05/26 07:24:31;;;;;;;14.68;2.80;;;;;;;;;;5026885;28;20056;-79
2023/05/26 07:26:57;;;;;;;14.23;3.00;;;;;;;;;;5049386;28;20037;-79
2023/05/26 07:29:22;;;;;;;14.07;3.40;;;;;;;;;;5049085;28;20412;-79
2023/05/26 07:31:47;;;;;;;11.52;2.50;;;;;;;;;;5046251;28;20025;-79
2023/05/26 07:34:13;;;;;;;15.80;3.13;;;;;;;;;;5034452;28;20032;-79
2023/05/26 07:36:38;;;;;;;11.25;2.85;;;;;;;;;;5043485;28;20021;-79
2023/05/26 07:39:04;;;;;;;15.43;3.08;;;;;;;;;;5052140;28;20037;-79
2023/05/26 07:41:29;;;;;;;11.90;3.08;;;;;;;;;;5036494;28;20033;-79
2023/05/26 07:43:55;;;;;;;12.88;2.30;;;;;;;;;;5033494;28;20094;-79
2023/05/26 07:46:21;;;;;;;16.42;3.05;;;;;;;;;;5023430;28;20040;-79
2023/05/26 07:48:47;;;;;;;13.63;2.83;;;;;;;;;;5054076;28;20099;-79
2023/05/26 07:51:13;;;;;;;13.55;2.65;;;;;;;;;;5031815;28;20032;-79
2023/05/26 07:53:38;;;;;;;11.30;2.60;;;;;;;;;;5034424;28;20037;-79
2023/05/26 07:56:04;;;;;;;13.15;2.88;;;;;;;;;;5054026;28;20033;-79
2023/05/26 07:58:29;;;;;;;15.25;3.13;;;;;;;;;;5053073;28;20055;-79
2023/05/26 08:00:55;;;;;;;11.95;2.88;;;;;;;;;;5047271;28;20087;-79
2023/05/26 08:03:20;;;;;;;14.27;2.60;;;;;;;;;;5048360;28;20032;-79
2023/05/26 08:05:46;;;;;;;13.75;2.85;;;;;;;;;;5050374;28;20032;-79
2023/05/26 08:08:12;;;;;;;12.98;3.38;;;;;;;;;;5035740;28;20021;-79
2023/05/26 08:10:37;;;;;;;11.73;3.58;;;;;;;;;;5053406;28;20372;-79
2023/05/26 08:13:02;;;;;;;14.07;2.88;;;;;;;;;;5045421;28;20028;-79
2023/05/26 08:15:28;;;;;;;9.45;2.40;;;;;;;;;;5030833;28;20056;-79
2023/05/26 08:17:53;;;;;;;10.18;2.88;;;;;;;;;;5029345;28;20025;-79
2023/05/26 08:20:19;;;;;;;16.50;3.28;;;;;;;;;;5024157;28;20028;-79
2023/05/26 08:22:45;;;;;;;12.95;2.90;;;;;;;;;;5034209;28;20094;-79
2023/05/26 08:25:10;;;;;;;15.02;2.70;;;;;;;;;;5045287;28;20029;-79
2023/05/26 08:27:36;;;;;;;10.88;3.00;;;;;;;;;;5052948;28;20067;-79
2023/05/26 08:30:01;;;;;;;13.75;3.10;;;;;;;;;;5052471;28;20029;-79
2023/05/26 08:32:27;;;;;;;10.85;2.88;;;;;;;;;;5013163;28;20037;-79
2023/05/26 08:34:52;;;;;;;11.82;3.30;;;;;;;;;;5033908;28;20029;-81
2023/05/26 08:37:18;;;;;;;13.05;3.35;;;;;;;;;;5052987;28;20029;-81
2023/05/26 08:39:44;;;;;;;13.18;3.30;;;;;;;;;;5051524;28;20032;-81
2023/05/26 08:42:15;;;;;;;16.38;3.20;;;;;;;;;;5052078;28;20025;-81
2023/05/26 08:44:43;;;;;;;11.27;2.78;;;;;;;;;;5025167;28;20469;-81
2023/05/26 08:47:11;;;;;;;13.60;3.63;;;;;;;;;;5050611;28;20024;-81
2023/05/26 08:49:41;;;;;;;12.50;3.03;;;;;;;;;;5037238;28;20025;-81
2023/05/26 08:52:13;;;;;;;13.68;2.72;;;;;;;;;;5036526;28;20061;-81
2023/05/26 08:54:39;;;;;;;9.75;2.78;;;;;;;;;;5045361;28;20024;-82
2023/05/26 08:57:06;;;;;;;12.95;3.08;;;;;;;;;;5047212;28;20028;-80
2023/05/26 08:59:32;;;;;;;16.20;3.50;;;;;;;;;;5033805;28;20049;-82
2023/05/26 09:01:57;;;;;;;14.55;3.08;;;;;;;;;;5047248;28;20079;-80
2023/05/26 09:04:24;;;;;;;14.57;3.03;;;;;;;;;;5045863;28;20033;-82
2023/05/26 09:06:50;;;;;;;12.05;3.10;;;;;;;;;;5032321;28;20075;-82
2023/05/26 09:09:17;;;;;;;13.93;3.00;;;;;;;;;;5046177;28;20028;-82
2023/05/26 09:11:43;;;;;;;12.60;3.08;;;;;;;;;;5048468;28;20482;-81
2023/05/26 09:14:16;;;;;;;12.10;3.03;;;;;;;;;;5027127;28;20021;-81
2023/05/26 09:16:41;;;;;;;10.63;3.08;;;;;;;;;;5051276;28;20436;-81
2023/05/26 09:19:11;;;;;;;11.95;2.85;;;;;;;;;;5046132;28;20033;-81
2023/05/26 09:21:37;;;;;;;14.02;2.95;;;;;;;;;;5032853;28;20079;-80
2023/05/26 09:24:02;;;;;;;15.18;3.08;;;;;;;;;;5032187;28;20025;-83
2023/05/26 09:26:37;;;;;;;11.00;2.72;;;;;;;;;;5046489;28;20021;-82
2023/05/26 09:29:05;;;;;;;14.90;3.40;;;;;;;;;;5045423;28;20477;-81
2023/05/26 09:31:48;;;;;;;14.05;3.67;;;;;;;;;;5041762;28;20028;-82
2023/05/26 09:34:15;;;;;;;;;;;;;;;;;;5046752;28;20024;-82
2023/05/26 09:36:41;;;;;;;12.10;2.78;;;;;;;;;;5036627;28;19908;-82
2023/05/26 09:39:12;;;;;;;10.38;2.83;;;;;;;;;;5035664;28;20033;-82
2023/05/26 09:41:42;;;;;;;11.20;2.78;;;;;;;;;;5061142;28;20021;-82
2023/05/26 09:44:10;;;;;;;10.27;2.67;;;;;;;;;;5048092;28;20020;-81
2023/05/26 09:46:36;;;;;;;11.50;2.88;;;;;;;;;;5049880;28;20024;-81
2023/05/26 09:49:07;;;;;;;11.73;2.50;;;;;;;;;;5032474;28;20031;-82
2023/05/26 09:51:33;;;;;;;9.35;2.70;;;;;;;;;;5042868;28;20017;-82
2023/05/26 09:53:58;;;;;;;10.77;2.70;;;;;;;;;;5049026;28;20723;-82
2023/05/26 09:56:26;;;;;;;11.20;2.88;;;;;;;;;;5044374;28;20033;-82
2023/05/26 09:58:54;;;;;;;10.90;3.05;;;;;;;;;;5042098;28;20491;-81
2023/05/26 10:01:21;;;;;;;13.45;2.95;;;;;;;;;;5050061;28;20021;-82
2023/05/26 10:03:48;;;;;;;13.85;3.08;;;;;;;;;;5028676;28;20493;-82
2023/05/26 10:06:16;;;;;;;11.10;2.75;;;;;;;;;;5037424;28;20543;-82
2023/05/26 10:08:45;;;;;;;10.02;3.00;;;;;;;;;;5030335;28;20032;-81
2023/05/26 10:11:11;;;;;;;12.02;2.50;;;;;;;;;;5053172;28;20039;-82
2023/05/26 10:13:38;;;;;;;15.10;2.83;;;;;;;;;;5042428;28;20055;-82
2023/05/26 10:16:04;;;;;;;14.73;2.90;;;;;;;;;;5047530;28;20021;-83
2023/05/26 10:18:29;;;;;;;12.25;2.63;;;;;;;;;;5045058;28;20027;-82
2023/05/26 10:20:57;;;;;;;7.63;2.25;;;;;;;;;;5038478;28;20047;-82
2023/05/26 10:23:31;;;;;;;11.68;2.88;;;;;;;;;;5046380;28;20113;-82
2023/05/26 10:26:32;;;;;;;8.15;2.78;;;;;;;;;;5046591;28;20084;-82
2023/05/26 10:29:03;;;;;;;14.07;2.50;;;;;;;;;;4997904;28;20045;-82
2023/05/26 10:31:31;;;;;;;9.23;2.38;;;;;;;;;;5044834;28;20052;-82
2023/05/26 10:33:57;;;;;;;16.27;2.60;;;;;;;;;;5031893;28;20041;-82
2023/05/26 10:36:23;;;;;;;11.23;2.47;;;;;;;;;;5050223;28;20044;-82
2023/05/26 10:38:51;;;;;;;12.18;2.35;;;;;;;;;;5033864;28;20501;-82
2023/05/26 10:41:31;;;;;;;9.45;2.80;;;;;;;;;;5045287;28;20030;-82
2023/05/26 10:43:58;;;;;;;9.13;2.80;;;;;;;;;;5037047;28;20029;-82
2023/05/26 10:46:55;;;;;;;7.45;2.40;;;;;;;;;;5029724;28;20032;-82
2023/05/26 10:49:22;;;;;;;9.63;2.78;;;;;;;;;;5015156;28;20128;-82
2023/05/26 10:51:53;;;;;;;11.07;2.33;;;;;;;;;;5051283;28;20028;-82
2023/05/26 10:54:24;;;;;;;9.82;2.60;;;;;;;;;;5034094;28;20079;-82
2023/05/26 10:56:51;;;;;;;8.82;2.25;;;;;;;;;;5039119;28;20113;-82
2023/05/26 10:59:33;;;;;;;10.52;2.70;;;;;;;;;;5049645;28;20388;-81
2023/05/26 11:02:03;;;;;;;11.45;2.50;;;;;;;;;;5050530;28;20385;-83
2023/05/26 11:04:41;;;;;;;6.93;2.50;;;;;;;;;;5030813;28;20078;-81
2023/05/26 11:07:16;;;;;;;9.40;2.45;;;;;;;;;;5045955;28;20035;-81
2023/05/26 11:09:56;;;;;;;9.88;2.80;;;;;;;;;;5045978;28;20028;-82
2023/05/26 11:12:22;;;;;;;14.07;3.00;;;;;;;;;;5046116;28;20021;-82
2023/05/26 11:14:48;;;;;;;8.90;2.40;;;;;;;;;;5034791;28;20021;-82
2023/05/26 11:17:13;;;;;;;12.02;2.47;;;;;;;;;;5023619;28;20048;-82
2023/05/26 11:19:39;;;;;;;7.55;2.00;;;;;;;;;;5041012;28;20440;-82
2023/05/26 11:22:10;;;;;;;11.32;2.35;;;;;;;;;;5041222;28;20052;-82
2023/05/26 11:24:36;;;;;;;7.72;2.05;;;;;;;;;;5020858;28;20025;-83
2023/05/26 11:27:03;;;;;;;8.70;2.05;;;;;;;;;;5021916;28;20066;-82
2023/05/26 11:29:30;;;;;;;8.88;2.50;;;;;;;;;;5047525;28;20028;-80
2023/05/26 11:31:56;;;;;;;9.20;2.45;;;;;;;;;;5044932;28;20056;-82
2023/05/26 11:34:22;;;;;;;12.32;2.60;;;;;;;;;;5047141;28;20079;-82
2023/05/26 11:36:48;;;;;;;7.43;1.90;;;;;;;;;;5029158;28;20037;-82
2023/05/26 11:39:15;;;;;;;9.60;2.03;;;;;;;;;;5036648;28;20060;-82
2023/05/26 11:41:41;;;;;;;8.07;1.98;;;;;;;;;;5034789;28;20029;-82
2023/05/26 11:44:13;;;;;;;11.40;2.40;;;;;;;;;;5052524;28;20039;-82
2023/05/26 11:46:40;;;;;;;9.57;2.45;;;;;;;;;;5025647;28;20470;-82
2023/05/26 11:49:16;;;;;;;9.13;2.10;;;;;;;;;;5026926;28;20393;-82
2023/05/26 11:51:47;;;;;;;10.63;2.10;;;;;;;;;;5041323;28;20031;-82
2023/05/26 11:54:12;;;;;;;9.68;2.15;;;;;;;;;;5051544;28;20025;-82
2023/05/26 11:56:38;;;;;;;8.02;2.10;;;;;;;;;;5060500;28;20024;-82
2023/05/26 11:59:04;;;;;;;7.72;2.45;;;;;;;;;;5047415;28;20059;-82
2023/05/26 12:01:31;;;;;;;8.77;2.33;;;;;;;;;;5047610;28;20029;-82
2023/05/26 12:03:59;;;;;;;11.15;2.35;;;;;;;;;;5050851;28;20094;-82
2023/05/26 12:06:27;;;;;;;8.15;2.25;;;;;;;;;;5031667;28;20033;-82
2023/05/26 12:08:55;;;;;;;9.65;2.80;;;;;;;;;;5024525;28;20033;-82
2023/05/26 12:11:38;;;;;;;10.52;2.47;;;;;;;;;;5048955;28;20032;-82
2023/05/26 12:14:10;;;;;;;10.38;2.20;;;;;;;;;;5050985;28;20078;-81
2023/05/26 12:16:41;;;;;;;11.27;2.22;;;;;;;;;;5041644;28;20029;-82
2023/05/26 12:19:11;;;;;;;9.52;2.08;;;;;;;;;;5049155;28;20401;-79
2023/05/26 12:22:02;;;;;;;7.47;2.13;;;;;;;;;;5043893;28;20020;-78
2023/05/26 12:24:33;;;;;;;10.05;1.90;;;;;;;;;;5041103;28;20041;-78
2023/05/26 12:27:09;;;;;;;7.53;1.98;;;;;;;;;;5036370;28;20035;-78
2023/05/26 12:29:37;;;;;;;9.18;2.50;;;;;;;;;;5036610;28;20033;-79
2023/05/26 12:32:04;;;;;;;7.53;2.10;;;;;;;;;;5041118;28;20028;-78
2023/05/26 12:34:30;;;;;;;7.90;2.20;;;;;;;;;;5045076;28;20029;-78
2023/05/26 12:36:55;;;;;;;9.35;2.10;;;;;;;;;;5048211;28;20031;-78
2023/05/26 12:39:20;;;;;;;7.70;2.38;;;;;;;;;;5042238;28;20025;-78
2023/05/26 12:41:46;;;;;;;9.55;1.90;;;;;;;;;;5051921;28;20059;-78
2023/05/26 12:44:13;;;;;;;7.03;2.65;;;;;;;;;;5041279;28;20029;-78
2023/05/26 12:46:40;;;;;;;9.05;1.88;;;;;;;;;;5046756;28;20116;-79
2023/05/26 12:49:07;;;;;;;6.40;1.98;;;;;;;;;;5030215;28;20061;-79
2023/05/26 12:51:32;;;;;;;7.03;2.03;;;;;;;;;;5043432;28;20099;-78
2023/05/26 12:53:58;;;;;;;7.03;2.38;;;;;;;;;;5044056;28;20029;-78
2023/05/26 12:56:24;;;;;;;13.82;2.45;;;;;;;;;;5034644;28;20469;-78
2023/05/26 12:58:50;;;;;;;8.73;2.00;;;;;;;;;;5052771;28;20025;-78
2023/05/26 13:01:15;;;;;;;9.80;1.75;;;;;;;;;;5047727;28;20036;-78
2023/05/26 13:03:41;;;;;;;8.57;2.28;;;;;;;;;;5044126;28;20025;-78
2023/05/26 13:06:08;;;;;;;7.18;1.67;;;;;;;;;;5028476;28;20032;-78
2023/05/26 13:08:35;;;;;;;8.82;2.00;;;;;;;;;;5049001;28;20374;-78
2023/05/26 13:11:01;;;;;;;9.65;2.20;;;;;;;;;;5034442;28;20218;-78
2023/05/26 13:13:27;;;;;;;6.95;2.22;;;;;;;;;;5036739;28;20373;-78
2023/05/26 13:15:52;;;;;;;8.35;2.10;;;;;;;;;;5030619;28;20036;-78
2023/05/26 13:18:19;;;;;;;9.77;1.98;;;;;;;;;;5029076;28;20037;-78
2023/05/26 13:20:45;;;;;;;8.45;2.00;;;;;;;;;;5041287;28;20021;-78
2023/05/26 13:23:10;;;;;;;9.32;2.50;;;;;;;;;;5041396;28;20029;-78
2023/05/26 13:25:36;;;;;;;7.90;2.05;;;;;;;;;;5043813;28;20029;-78
2023/05/26 13:28:01;;;;;;;9.73;2.08;;;;;;;;;;5036367;28;20035;-78
2023/05/26 13:30:27;;;;;;;8.35;1.80;;;;;;;;;;5042594;28;20029;-78
2023/05/26 13:32:54;;;;;;;10.02;1.92;;;;;;;;;;5041967;28;20036;-78
2023/05/26 13:35:20;;;;;;;9.88;2.33;;;;;;;;;;5017487;28;20029;-78
2023/05/26 13:37:46;;;;;;;7.45;2.58;;;;;;;;;;5030518;28;20033;-78
2023/05/26 13:40:11;;;;;;;7.68;2.08;;;;;;;;;;5046958;28;20043;-78
2023/05/26 13:42:37;;;;;;;8.65;2.17;;;;;;;;;;5025077;28;20032;-78
2023/05/26 13:45:03;;;;;;;8.30;2.20;;;;;;;;;;5026099;28;20029;-78
2023/05/26 13:47:30;;;;;;;8.57;2.40;;;;;;;;;;5022633;28;20106;-80
2023/05/26 13:49:55;;;;;;;8.55;2.22;;;;;;;;;;5037975;28;20032;-78
2023/05/26 13:52:21;;;;;;;9.52;2.33;;;;;;;;;;5036848;28;20193;-78
2023/05/26 13:54:47;;;;;;;8.73;2.33;;;;;;;;;;5041060;28;20020;-78
2023/05/26 13:57:12;;;;;;;9.82;2.10;;;;;;;;;;5033386;28;20500;-78
2023/05/26 13:59:37;;;;;;;7.38;2.10;;;;;;;;;;5045685;28;20049;-78
2023/05/26 14:02:03;;;;;;;9.82;2.03;;;;;;;;;;5044120;28;20031;-78
2023/05/26 14:04:28;;;;;;;9.20;2.42;;;;;;;;;;5047483;28;20033;-78
2023/05/26 14:06:54;;;;;;;8.82;2.10;;;;;;;;;;5047768;28;20381;-78
2023/05/26 14:09:19;;;;;;;8.25;2.10;;;;;;;;;;5047351;28;20096;-78
2023/05/26 14:11:44;;;;;;;6.10;2.00;;;;;;;;;;5047833;28;20036;-78
2023/05/26 14:14:10;;;;;;;8.57;2.45;;;;;;;;;;5051970;28;20064;-78
2023/05/26 14:16:35;;;;;;;11.10;2.72;;;;;;;;;;5029821;28;20025;-78
2023/05/26 14:19:04;;;;;;;8.88;1.80;;;;;;;;;;5047515;28;20043;-78
2023/05/26 14:21:29;;;;;;;9.98;2.35;;;;;;;;;;5040037;28;20118;-79
2023/05/26 14:23:55;;;;;;;7.35;2.20;;;;;;;;;;5050725;28;20118;-79
2023/05/26 14:26:20;;;;;;;8.38;1.95;;;;;;;;;;5050427;28;20485;-78
2023/05/26 14:28:46;;;;;;;7.55;2.13;;;;;;;;;;5030767;28;20063;-78
2023/05/26 14:31:13;;;;;;;8.23;2.13;;;;;;;;;;5030452;28;20062;-78